Guntersville, Alabama
Current Conditions -  °F | °C
As of 3:15 PM on Sunday 28 Dec 2014 (Local Time) from K8A0 Reporting Station
Overcast Overcast  
Wind Chill: 55°   Ceiling: 700
Heat Index: 55°   Visibility: 10mi
Dew Point: 55°   Wind: 8mph
Humidity: 100%   Direction: 310°NW
Pressure: 30.07"   Gusts: NA
Location:  34.35°N, 86.3°W
Report Text: K8A0 282115Z AUTO 31007KT 10SM OVC007 13/13 A3007 RMK AO2
Loading
Personal Weather Stations






























Interactive Weather Map New forecast layout! Learn more

10-Day Weather Forecast

Advertisements
Track Severe Weather on mobile